Time;durP1;ratioP1;P1;durP2;ratioP2;P2;SDS_P1;SDS_P2;PMS_P1;PMS_P2;Temp;Humidity;BMP_temperature;BMP_pressure;BME280_temperature;BME280_humidity;BME280_pressure;Samples;Min_cycle;Max_cycle;Signal;HPM_P1;HPM_P2
2021/01/04 00:00:57;;;;;;;21.33;17.70;;;-0.10;1.40;;;1.36;86.92;94801.06;646001;212;31680;-72
2021/01/04 00:03:34;;;;;;;20.83;16.60;;;-0.10;1.40;;;0.74;87.89;94805.16;638709;221;23509;-73
2021/01/04 00:06:19;;;;;;;20.73;15.80;;;-0.20;1.40;;;0.87;88.21;94801.81;640204;221;24642;-73
2021/01/04 00:08:59;;;;;;;17.17;12.63;;;-0.20;1.40;;;1.05;87.78;94802.39;639688;221;29792;-72
2021/01/04 00:11:51;;;;;;;20.17;13.37;;;-0.10;1.40;;;1.14;86.55;94796.64;643212;220;26678;-72
2021/01/04 00:14:37;;;;;;;21.12;17.45;;;-0.10;1.40;;;1.26;85.86;94794.86;646894;216;31835;-73
2021/01/04 00:17:11;;;;;;;18.83;14.30;;;-0.10;1.40;;;0.97;86.61;94800.06;638343;221;23507;-71
2021/01/04 00:19:59;;;;;;;20.33;16.90;;;-0.20;1.40;;;0.93;87.09;94798.84;633914;221;31800;-71
2021/01/04 00:22:59;;;;;;;22.70;19.00;;;-0.20;1.40;;;1.01;87.04;94801.95;647079;212;31653;-71
2021/01/04 00:25:56;;;;;;;21.90;18.10;;;-0.20;1.40;;;0.98;87.66;94797.62;646695;216;31688;-71
2021/01/04 00:28:34;;;;;;;21.92;17.60;;;-0.20;1.40;;;1.18;87.92;94794.73;646592;216;31659;-71
2021/01/04 00:31:06;;;;;;;19.50;16.77;;;-0.10;1.40;;;0.98;87.08;94799.27;641162;221;23455;-72
2021/01/04 00:33:38;;;;;;;20.50;15.33;;;-0.20;1.40;;;0.85;87.22;94798.87;639426;220;24544;-72
2021/01/04 00:36:06;;;;;;;18.83;16.00;;;-0.20;1.40;;;0.69;88.20;94793.42;641099;220;24563;-72
2021/01/04 00:38:41;;;;;;;17.63;13.77;;;-0.20;1.40;;;0.66;88.02;94795.06;641285;221;25000;-72
2021/01/04 00:41:15;;;;;;;17.17;12.30;;;-0.20;1.40;;;0.67;88.47;94795.13;638600;220;24744;-72
2021/01/04 00:43:44;;;;;;;18.80;15.50;;;-0.20;1.40;;;0.65;89.01;94794.47;628393;224;24572;-73
2021/01/04 00:46:13;;;;;;;20.53;15.47;;;-0.20;1.40;;;0.69;88.94;94796.41;627672;225;24559;-72
2021/01/04 00:49:00;;;;;;;19.37;15.20;;;-0.30;1.40;;;0.76;89.04;94800.75;629502;225;25394;-72
2021/01/04 00:54:26;;;;;;;23.98;18.30;;;-0.30;1.40;;;0.84;88.42;94800.89;646926;216;31617;-72
2021/01/04 00:57:00;;;;;;;19.03;16.17;;;-0.30;1.40;;;0.74;88.20;94803.48;642860;221;24604;-72
2021/01/04 00:59:33;;;;;;;22.10;16.20;;;-0.30;1.40;;;0.62;88.80;94808.59;643110;221;26629;-72
2021/01/04 01:02:24;;;;;;;20.37;16.85;;;-0.30;1.40;;;0.55;88.99;94810.59;636973;221;31701;-72
2021/01/04 01:05:10;;;;;;;18.83;16.80;;;-0.30;1.40;;;0.59;88.89;94812.36;619968;225;32830;-72
2021/01/04 01:08:05;;;;;;;19.85;16.20;;;-0.20;1.40;;;0.88;88.24;94812.11;607086;229;32266;-72
2021/01/04 01:10:34;;;;;;;18.97;15.17;;;-0.20;1.40;;;1.00;87.36;94817.27;613658;229;23543;-71
2021/01/04 01:13:53;;;;;;;22.60;15.07;;;-0.10;1.40;;;0.73;87.03;94815.11;617543;230;24616;-73
2021/01/04 01:17:04;;;;;;;18.33;15.55;;;-0.20;1.40;;;0.75;88.04;94818.72;649190;212;31849;-72
2021/01/04 01:19:44;;;;;;;18.87;16.33;;;-0.30;1.40;;;0.55;88.32;94818.33;646231;213;31656;-73
2021/01/04 01:22:31;;;;;;;18.83;13.00;;;-0.30;1.40;;;0.88;88.27;94817.39;640448;220;23494;-72
2021/01/04 01:25:00;;;;;;;18.70;15.77;;;-0.20;1.40;;;0.70;87.85;94821.33;641260;220;24517;-72
2021/01/04 01:27:42;;;;;;;17.53;13.00;;;-0.20;1.40;;;0.49;88.15;94824.00;648159;219;24502;-72
2021/01/04 01:30:33;;;;;;;17.07;13.23;;;-0.30;1.40;;;0.43;89.06;94819.43;668433;211;24423;-72
2021/01/04 01:33:20;;;;;;;18.30;15.65;;;-0.30;1.40;;;0.30;89.49;94828.86;647381;216;32170;-72
2021/01/04 01:35:56;;;;;;;15.93;14.33;;;-0.30;1.40;;;0.33;89.94;94828.03;641981;221;25610;-72
2021/01/04 01:38:29;;;;;;;17.00;15.07;;;-0.30;1.40;;;0.28;90.59;94825.75;638892;221;24582;-72
2021/01/04 01:41:24;;;;;;;20.90;14.77;;;-0.30;1.40;;;0.14;91.00;94824.88;628868;225;24598;-72
2021/01/04 01:44:17;;;;;;;19.23;15.30;;;-0.40;1.40;;;0.19;91.69;94825.73;646114;216;31610;-72
2021/01/04 01:46:49;;;;;;;19.93;15.30;;;-0.40;1.40;;;0.17;91.29;94826.44;644074;220;24668;-72
2021/01/04 01:49:30;;;;;;;15.70;12.80;;;-0.40;1.40;;;0.10;91.12;94824.79;642169;221;24686;-72
2021/01/04 01:52:07;;;;;;;24.70;14.87;;;-0.40;1.40;;;0.11;91.66;94826.50;643755;220;24542;-73
2021/01/04 01:54:41;;;;;;;17.60;15.07;;;-0.40;1.40;;;0.28;91.52;94830.06;637376;221;24513;-71
2021/01/04 01:57:20;;;;;;;20.95;16.87;;;-0.40;1.40;;;0.29;90.71;94827.47;634238;221;43076;-71
2021/01/04 02:00:19;;;;;;;16.95;15.15;;;-0.40;1.40;;;0.24;90.94;94832.65;637291;221;31788;-71
2021/01/04 02:03:11;;;;;;;18.55;15.45;;;-0.40;1.40;;;0.25;91.31;94824.88;646550;216;31650;-73
2021/01/04 02:05:51;;;;;;;17.47;14.23;;;-0.40;1.40;;;0.09;91.72;94819.13;643103;220;23616;-72
2021/01/04 02:08:20;;;;;;;18.80;14.87;;;-0.40;1.40;;;0.40;91.34;94817.33;636087;221;34719;-72
2021/01/04 02:10:48;;;;;;;17.07;13.63;;;-0.40;1.40;;;0.10;90.25;94819.08;641079;221;24707;-72
2021/01/04 02:13:34;;;;;;;15.60;12.90;;;-0.50;1.40;;;0.03;91.26;94821.59;641472;220;24520;-72
2021/01/04 02:16:06;;;;;;;20.40;13.77;;;-0.50;1.40;;;0.19;90.79;94823.55;642958;220;24537;-72
2021/01/04 02:18:44;;;;;;;17.30;13.93;;;-0.40;1.40;;;0.56;89.39;94820.18;641107;220;24560;-72
2021/01/04 02:24:15;;;;;;;17.02;13.00;;;-0.40;1.40;;;0.59;88.06;94823.13;621429;226;31961;-72
2021/01/04 02:26:43;;;;;;;18.47;12.33;;;-0.40;1.40;;;0.58;87.74;94819.29;616257;229;23576;-72
2021/01/04 02:29:17;;;;;;;14.97;12.50;;;-0.40;1.40;;;0.62;87.33;94817.23;618130;230;28119;-72
2021/01/04 02:31:51;;;;;;;13.77;11.60;;;-0.40;1.40;;;0.09;88.64;94815.88;617546;229;26789;-73
2021/01/04 02:34:19;;;;;;;12.03;10.23;;;-0.50;1.40;;;0.05;89.67;94813.82;617822;230;24622;-72
2021/01/04 02:36:49;;;;;;;16.40;13.20;;;-0.50;1.40;;;0.04;89.91;94815.78;613892;230;26707;-72
2021/01/04 02:39:37;;;;;;;14.47;11.67;;;-0.50;1.40;;;0.19;89.89;94816.80;612422;230;25745;-72
2021/01/04 02:42:11;;;;;;;17.00;14.48;;;-0.50;1.40;;;0.39;88.70;94812.37;612964;230;32385;-73
2021/01/04 02:44:39;;;;;;;14.30;11.97;;;-0.40;1.40;;;0.33;88.48;94808.08;616083;229;24846;-71
2021/01/04 02:47:31;;;;;;;16.27;11.97;;;-0.40;1.40;;;0.53;88.49;94812.08;619383;230;24596;-73
2021/01/04 02:50:20;;;;;;;15.00;12.00;;;-0.40;1.40;;;0.46;87.81;94809.64;615916;229;25657;-72
2021/01/04 02:53:19;;;;;;;16.45;13.98;;;-0.40;1.40;;;0.49;87.82;94812.59;645795;216;31634;-71
2021/01/04 02:56:15;;;;;;;16.70;13.95;;;-0.40;1.40;;;0.51;87.96;94810.36;648840;216;31641;-72
2021/01/04 02:59:03;;;;;;;18.20;12.83;;;-0.40;1.40;;;0.51;87.55;94818.69;641432;220;23479;-72
2021/01/04 03:01:55;;;;;;;16.50;13.67;;;-0.40;1.40;;;0.34;88.38;94821.52;651048;218;24465;-72
2021/01/04 03:04:33;;;;;;;17.33;13.93;;;-0.40;1.40;;;0.58;88.70;94818.59;646183;216;32157;-72
2021/01/04 03:07:16;;;;;;;19.50;15.67;;;-0.40;1.40;;;0.52;88.11;94824.02;641896;220;23486;-72
2021/01/04 03:09:44;;;;;;;17.80;12.03;;;-0.40;1.40;;;0.12;89.77;94820.54;642367;220;24570;-73
2021/01/04 03:12:13;;;;;;;18.97;13.40;;;-0.50;1.40;;;0.22;90.55;94822.29;643718;221;24887;-73
2021/01/04 03:14:50;;;;;;;18.00;14.00;;;-0.50;1.40;;;0.27;89.93;94822.60;642091;220;24533;-72
2021/01/04 03:17:21;;;;;;;14.13;12.37;;;-0.50;1.40;;;0.21;89.17;94824.58;641197;220;24522;-72
2021/01/04 03:19:49;;;;;;;12.57;10.87;;;-0.50;1.40;;;0.11;90.08;94828.73;641213;220;24487;-73
2021/01/04 03:22:18;;;;;;;16.60;13.40;;;-0.50;1.40;;;0.07;90.58;94826.31;639984;220;24503;-72
2021/01/04 03:24:49;;;;;;;17.12;14.77;;;-0.50;1.40;;;0.31;90.43;94824.44;635148;220;32023;-72
2021/01/04 03:27:19;;;;;;;15.57;12.60;;;-0.50;1.40;;;0.42;89.26;94826.84;673461;211;23431;-72
2021/01/04 03:29:47;;;;;;;13.20;10.63;;;-0.40;1.40;;;0.57;88.62;94824.35;666996;211;24655;-73
2021/01/04 03:32:16;;;;;;;13.70;11.57;;;-0.40;1.40;;;0.75;87.78;94824.31;672096;211;24416;-73
2021/01/04 03:34:44;;;;;;;15.67;12.00;;;-0.40;1.40;;;0.77;87.14;94823.95;667249;211;24505;-72
2021/01/04 03:37:13;;;;;;;14.77;13.20;;;-0.40;1.40;;;0.57;86.57;94828.94;670637;211;26763;-73
2021/01/04 03:39:41;;;;;;;13.43;11.30;;;-0.40;1.40;;;0.66;87.18;94826.05;659715;211;24560;-73
2021/01/04 03:42:10;;;;;;;13.87;12.43;;;-0.40;1.40;;;0.47;87.54;94825.31;654595;216;25525;-72
2021/01/04 03:44:38;;;;;;;14.53;10.70;;;-0.50;1.40;;;0.48;87.70;94826.29;637402;222;24515;-72
2021/01/04 03:47:06;;;;;;;19.00;12.73;;;-0.50;1.40;;;0.31;88.08;94824.12;640741;223;25620;-71
2021/01/04 03:49:35;;;;;;;16.60;13.27;;;-0.50;1.40;;;0.25;88.66;94824.61;658755;216;29720;-72
2021/01/04 03:52:03;;;;;;;20.03;12.27;;;-0.50;1.40;;;0.43;88.54;94820.98;640700;223;25603;-73
2021/01/04 03:54:32;;;;;;;17.20;14.60;;;-0.50;1.40;;;0.48;87.87;94819.84;656243;216;24595;-72
2021/01/04 03:57:00;;;;;;;15.77;12.10;;;-0.50;1.40;;;0.72;87.40;94817.77;641879;220;24765;-73
2021/01/04 03:59:29;;;;;;;14.73;12.23;;;-0.40;1.40;;;0.61;86.49;94819.84;660487;216;24451;-72
2021/01/04 04:01:57;;;;;;;13.17;11.40;;;-0.40;1.40;;;0.72;86.63;94814.30;657400;215;24478;-72
2021/01/04 04:07:03;;;;;;;14.40;12.55;;;-0.40;1.40;;;0.62;85.61;94809.55;647225;212;31658;-71
2021/01/04 04:09:31;;;;;;;16.73;14.03;;;-0.50;1.40;;;0.57;85.74;94812.83;639324;221;23485;-72
2021/01/04 04:11:59;;;;;;;14.40;12.10;;;-0.50;1.40;;;0.69;86.10;94808.52;641263;220;24545;-71
2021/01/04 04:14:28;;;;;;;15.40;11.97;;;-0.40;1.40;;;0.69;85.30;94808.47;643605;219;24503;-71
2021/01/04 04:16:56;;;;;;;15.17;11.70;;;-0.40;1.40;;;0.88;85.51;94813.77;640774;221;25790;-72
2021/01/04 04:19:25;;;;;;;20.07;12.77;;;-0.40;1.40;;;0.78;85.94;94807.91;638913;221;24480;-72
2021/01/04 04:21:53;;;;;;;17.33;13.70;;;-0.40;1.40;;;0.63;85.25;94814.20;636636;221;31875;-71
2021/01/04 04:24:21;;;;;;;16.40;12.97;;;-0.40;1.40;;;0.69;85.90;94808.05;642799;221;23472;-71
2021/01/04 04:26:53;;;;;;;13.57;11.20;;;-0.40;1.40;;;0.73;85.73;94809.66;638282;220;24536;-71
2021/01/04 04:29:21;;;;;;;16.60;11.47;;;-0.40;1.40;;;0.58;84.96;94809.31;639421;220;24504;-71
2021/01/04 04:31:50;;;;;;;14.20;12.70;;;-0.40;1.40;;;0.40;86.44;94810.87;639707;221;24521;-71
2021/01/04 04:34:18;;;;;;;14.67;10.73;;;-0.50;1.40;;;0.32;87.37;94812.50;643717;220;24532;-72
2021/01/04 04:39:21;;;;;;;18.10;14.15;;;-0.50;1.40;;;0.66;87.72;94812.98;648029;212;31615;-73
2021/01/04 04:41:50;;;;;;;16.00;14.10;;;-0.40;1.40;;;0.49;87.17;94813.77;645072;220;23513;-73
2021/01/04 04:44:25;;;;;;;17.17;12.20;;;-0.40;1.40;;;0.23;89.06;94818.04;669574;211;24426;-73
2021/01/04 04:47:08;;;;;;;14.53;12.50;;;-0.50;1.40;;;0.05;89.61;94814.57;665527;211;24551;-72
2021/01/04 04:50:02;;;;;;;14.37;12.53;;;-0.50;1.40;;;0.06;90.26;94816.92;667307;211;24444;-72
2021/01/04 04:53:19;;;;;;;16.77;14.20;;;-0.50;1.40;;;0.13;89.80;94812.02;648680;216;31798;-71
2021/01/04 04:56:11;;;;;;;18.37;14.85;;;-0.50;1.40;;;-0.08;90.56;94813.80;648541;212;31627;-73
2021/01/04 04:58:52;;;;;;;14.90;13.27;;;-0.60;1.40;;;-0.05;90.62;94812.59;640215;221;25607;-72
2021/01/04 05:01:30;;;;;;;17.90;13.77;;;-0.50;1.40;;;-0.01;90.01;94816.25;640397;221;24958;-72
2021/01/04 05:04:22;;;;;;;17.20;13.40;;;-0.50;1.40;;;0.12;90.07;94813.34;644075;221;24505;-72
2021/01/04 05:06:52;;;;;;;17.30;12.23;;;-0.50;1.40;;;-0.01;90.50;94813.74;638527;221;25735;-72
2021/01/04 05:09:39;;;;;;;15.37;11.90;;;-0.50;1.40;;;0.35;89.58;94814.71;644126;221;24600;-72
2021/01/04 05:12:14;;;;;;;17.53;12.37;;;-0.50;1.40;;;0.59;88.16;94813.27;640153;221;24566;-73
2021/01/04 05:14:43;;;;;;;12.80;10.23;;;-0.40;1.40;;;0.30;88.15;94814.67;641043;220;28846;-73
2021/01/04 05:17:35;;;;;;;13.70;11.60;;;-0.50;1.40;;;0.29;89.25;94817.59;640203;220;26809;-72
2021/01/04 05:20:38;;;;;;;18.50;14.95;;;-0.50;1.40;;;0.17;89.82;94818.98;648433;212;31628;-73
2021/01/04 05:23:30;;;;;;;17.50;13.07;;;-0.50;1.40;;;-0.07;89.64;94816.05;638884;221;23480;-73
2021/01/04 05:26:34;;;;;;;17.37;13.77;;;-0.60;1.40;;;-0.24;90.94;94820.13;620335;222;32018;-73
2021/01/04 05:29:41;;;;;;;17.30;15.05;;;-0.60;1.40;;;-0.26;91.09;94827.89;645896;216;31620;-72
2021/01/04 05:35:51;;;;;;;16.27;14.57;;;-0.70;1.40;;;0.18;88.75;94815.30;648158;216;42563;-73
2021/01/04 05:38:23;;;;;;;13.53;12.00;;;-0.60;1.40;;;-0.09;89.57;94814.53;642286;220;23485;-72
2021/01/04 05:41:21;;;;;;;16.85;15.05;;;-0.70;1.40;;;-0.23;90.91;94814.86;633161;221;31882;-73
2021/01/04 05:44:01;;;;;;;17.50;14.77;;;-0.70;1.40;;;-0.13;91.30;94821.11;637986;221;23583;-73
2021/01/04 05:46:34;;;;;;;16.67;13.30;;;-0.70;1.40;;;-0.02;91.29;94816.77;639961;220;24526;-72
2021/01/04 05:49:08;;;;;;;16.97;14.00;;;-0.70;1.40;;;0.24;90.04;94813.95;648832;220;27661;-72
2021/01/04 05:51:37;;;;;;;16.17;13.67;;;-0.60;1.40;;;0.26;89.03;94810.33;642926;220;24510;-72
2021/01/04 05:56:40;;;;;;;18.52;15.90;;;-0.60;1.40;;;0.47;88.31;94809.00;645916;215;31726;-73
2021/01/04 05:59:10;;;;;;;14.73;12.90;;;-0.60;1.40;;;0.16;89.49;94802.82;641208;220;23473;-72
2021/01/04 06:01:38;;;;;;;14.33;12.20;;;-0.60;1.40;;;-0.23;90.34;94803.52;639409;221;24568;-73
2021/01/04 06:04:08;;;;;;;16.00;14.33;;;-0.70;1.40;;;-0.22;91.61;94801.13;643089;221;27709;-73
2021/01/04 06:06:51;;;;;;;16.53;12.67;;;-0.70;1.40;;;-0.15;91.90;94806.49;640593;220;24518;-73
2021/01/04 06:09:20;;;;;;;14.00;10.70;;;-0.70;1.40;;;0.04;90.85;94814.08;646143;220;24572;-72
2021/01/04 06:12:02;;;;;;;17.80;14.32;;;-0.70;1.40;;;-0.19;90.92;94813.99;661442;211;34286;-71
2021/01/04 06:14:31;;;;;;;14.77;12.83;;;-0.70;1.40;;;-0.21;90.11;94816.05;647164;220;28786;-72
2021/01/04 06:17:01;;;;;;;18.13;13.90;;;-0.80;1.40;;;-0.27;90.58;94821.00;641180;220;24528;-72
2021/01/04 06:19:29;;;;;;;17.10;12.87;;;-0.70;1.40;;;-0.28;91.53;94822.33;668077;211;24795;-73
2021/01/04 06:24:32;;;;;;;18.17;14.45;;;-0.70;1.40;;;-0.32;91.52;94819.69;647371;216;31692;-72
2021/01/04 06:27:00;;;;;;;18.97;14.63;;;-0.70;1.40;;;-0.38;92.08;94821.88;639641;220;23533;-72
2021/01/04 06:29:32;;;;;;;16.77;14.43;;;-0.80;1.40;;;-0.38;91.17;94814.59;652290;216;24473;-73
2021/01/04 06:32:01;;;;;;;18.62;15.73;;;-0.80;1.40;;;-0.33;91.69;94820.26;665911;211;42093;-72
2021/01/04 06:34:34;;;;;;;19.80;17.48;;;-0.80;1.40;;;-0.19;91.77;94815.70;666686;211;31535;-73
2021/01/04 06:37:02;;;;;;;16.97;14.17;;;-0.80;1.40;;;-0.26;91.49;94813.50;675006;211;23413;-73
2021/01/04 06:39:32;;;;;;;14.83;11.97;;;-0.70;1.40;;;-0.29;91.34;94816.98;637754;220;24584;-72
2021/01/04 06:42:11;;;;;;;15.80;12.20;;;-0.80;1.40;;;-0.26;91.38;94817.13;654274;215;24476;-72
2021/01/04 06:44:39;;;;;;;17.40;13.70;;;-0.80;1.40;;;-0.06;90.78;94816.58;653661;215;27673;-72
2021/01/04 06:47:25;;;;;;;17.63;13.47;;;-0.80;1.40;;;-0.07;90.94;94812.27;655644;215;24994;-73
2021/01/04 06:50:05;;;;;;;20.17;16.00;;;-0.70;1.40;;;0.36;89.67;94816.69;628259;224;31867;-72
2021/01/04 06:52:39;;;;;;;19.15;16.40;;;-0.60;1.40;;;0.28;89.08;94818.19;637134;220;32122;-72
2021/01/04 06:55:34;;;;;;;17.00;15.30;;;-0.60;1.40;;;-0.01;90.33;94822.33;654392;215;23503;-72
2021/01/04 06:59:03;;;;;;;19.52;17.02;;;-0.70;1.40;;;0.28;90.35;94816.11;649119;212;31614;-73
2021/01/04 07:01:58;;;;;;;19.70;16.48;;;-0.60;1.40;;;0.28;89.26;94817.33;647291;216;31627;-72
2021/01/04 07:04:54;;;;;;;17.40;13.60;;;-0.60;1.40;;;0.37;89.57;94812.27;645271;221;23516;-72
2021/01/04 07:07:46;;;;;;;20.70;15.43;;;-0.60;1.40;;;0.55;88.87;94816.25;648287;216;31618;-72
2021/01/04 07:12:53;;;;;;;19.12;17.05;;;-0.60;1.40;;;0.52;88.05;94815.48;645343;216;31879;-72
2021/01/04 07:15:22;;;;;;;17.77;13.77;;;-0.60;1.40;;;0.64;88.06;94816.81;653159;218;24506;-71
2021/01/04 07:18:12;;;;;;;19.50;17.17;;;-0.60;1.40;;;0.56;87.24;94819.33;663634;210;32181;-71
2021/01/04 07:20:56;;;;;;;17.47;14.47;;;-0.50;1.40;;;0.57;87.85;94821.95;671521;211;27816;-71
2021/01/04 07:26:51;;;;;;;20.80;17.58;;;-0.60;1.40;;;-0.07;89.00;94830.05;644697;216;43088;-72
2021/01/04 07:29:46;;;;;;;20.60;17.55;;;-0.70;1.40;;;0.42;89.15;94828.75;636270;220;31869;-73
2021/01/04 07:32:27;;;;;;;21.60;17.40;;;-0.50;1.40;;;0.30;88.93;94832.22;644938;212;31617;-71
2021/01/04 07:34:59;;;;;;;20.90;16.40;;;-0.60;1.40;;;-0.04;89.34;94835.45;638796;221;27855;-72
2021/01/04 07:37:27;;;;;;;17.00;14.70;;;-0.60;1.40;;;0.11;89.91;94834.49;653334;216;24467;-72
2021/01/04 07:39:58;;;;;;;22.87;15.27;;;-0.60;1.40;;;0.02;89.89;94840.60;662502;211;25917;-72
2021/01/04 07:42:55;;;;;;;18.00;15.73;;;-0.60;1.40;;;0.11;90.10;94837.16;642682;220;24641;-72
2021/01/04 07:45:58;;;;;;;24.50;18.60;;;-0.60;1.40;;;0.18;90.15;94842.28;645373;212;31657;-73
2021/01/04 07:48:50;;;;;;;23.23;16.13;;;-0.60;1.40;;;0.04;89.12;94847.48;641180;220;24723;-73
2021/01/04 07:51:45;;;;;;;21.77;17.35;;;-0.60;1.40;;;-0.01;90.32;94853.02;619560;225;32199;-70
2021/01/04 07:57:12;;;;;;;23.73;18.48;;;-0.50;1.40;;;0.59;88.65;94848.58;648700;212;31770;-69
2021/01/04 08:00:00;;;;;;;25.92;19.05;;;-0.40;1.40;;;0.72;87.54;94850.31;648870;216;32049;-72
2021/01/04 08:02:55;;;;;;;23.10;17.63;;;-0.40;1.40;;;0.11;89.14;94851.02;652986;218;23473;-72
2021/01/04 08:05:27;;;;;;;29.17;16.03;;;-0.50;1.40;;;0.21;90.23;94852.88;668569;211;31982;-72
2021/01/04 08:08:23;;;;;;;25.63;15.97;;;-0.50;1.40;;;-0.02;90.22;94852.85;643257;219;24530;-72
2021/01/04 08:11:54;;;;;;;28.12;19.45;;;-0.50;1.40;;;-0.04;90.79;94851.60;649538;216;31613;-70
2021/01/04 08:15:13;;;;;;;26.50;20.37;;;-0.60;1.40;;;0.27;90.29;94847.66;648429;212;31752;-72
2021/01/04 08:17:58;;;;;;;24.55;18.95;;;-0.50;1.40;;;0.41;90.22;94837.12;647929;216;31641;-73
2021/01/04 08:20:28;;;;;;;25.83;17.67;;;-0.40;1.40;;;0.59;89.25;94843.08;639921;221;23473;-73
2021/01/04 08:23:24;;;;;;;23.93;17.70;;;-0.40;1.40;;;0.26;89.61;94848.44;642388;220;28782;-71
2021/01/04 08:26:39;;;;;;;27.33;20.42;;;-0.50;1.40;;;-0.14;91.88;94857.64;648699;216;31762;-71
2021/01/04 08:29:38;;;;;;;29.02;20.62;;;-0.50;1.40;;;0.24;90.01;94853.60;648499;212;31617;-72
2021/01/04 08:32:19;;;;;;;28.27;21.45;;;-0.40;1.40;;;0.44;89.30;94850.47;648058;216;31608;-70
2021/01/04 08:34:47;;;;;;;29.63;19.60;;;-0.40;1.40;;;0.13;89.50;94851.67;642235;221;23491;-70
2021/01/04 08:37:16;;;;;;;22.87;17.83;;;-0.40;1.40;;;-0.06;90.11;94855.05;638055;221;24810;-70
2021/01/04 08:39:47;;;;;;;25.87;18.10;;;-0.50;1.40;;;-0.15;91.44;94865.94;641033;220;24526;-69
2021/01/04 08:42:28;;;;;;;21.97;15.87;;;-0.50;1.40;;;-0.16;91.26;94860.50;647249;219;24492;-70
2021/01/04 08:44:57;;;;;;;26.17;18.80;;;-0.60;1.40;;;0.15;90.75;94857.07;666508;211;31479;-70
2021/01/04 08:50:06;;;;;;;27.45;21.77;;;-0.40;1.40;;;0.66;88.77;94860.14;648768;212;31615;-70
2021/01/04 08:55:09;;;;;;;28.17;21.23;;;-0.20;1.40;;;0.79;86.75;94865.27;648780;216;31597;-70
2021/01/04 08:57:40;;;;;;;28.70;20.70;;;-0.20;1.40;;;0.78;87.16;94863.76;642110;220;23519;-70
2021/01/04 09:00:19;;;;;;;28.77;18.63;;;-0.20;1.40;;;0.90;87.80;94866.60;641828;221;24491;-70
2021/01/04 09:02:47;;;;;;;22.47;15.83;;;-0.10;1.40;;;0.49;88.64;94867.19;641415;221;24683;-70
2021/01/04 09:05:15;;;;;;;27.10;19.00;;;-0.30;1.40;;;0.57;87.75;94867.06;640460;221;24512;-70
2021/01/04 09:07:48;;;;;;;19.70;15.10;;;-0.20;1.40;;;0.22;89.51;94875.11;639119;221;24525;-70
2021/01/04 09:10:33;;;;;;;27.23;19.77;;;-0.30;1.40;;;0.16;90.35;94868.64;635723;220;31817;-70
2021/01/04 09:13:37;;;;;;;30.83;22.55;;;-0.30;1.40;;;0.60;89.82;94867.41;646280;216;31797;-73
2021/01/04 09:16:25;;;;;;;29.40;22.00;;;-0.10;1.40;;;0.51;88.72;94871.91;636953;220;31767;-72
2021/01/04 09:19:10;;;;;;;29.45;21.87;;;-0.10;1.40;;;0.54;87.75;94860.83;647409;216;31585;-70
2021/01/04 09:21:39;;;;;;;28.13;21.57;;;-0.20;1.40;;;0.67;88.12;94860.14;639112;220;23485;-70
2021/01/04 09:24:37;;;;;;;26.83;20.10;;;-0.10;1.40;;;0.98;87.48;94862.78;638898;221;24505;-70
2021/01/04 09:27:11;;;;;;;26.60;17.17;;;0.00;1.40;;;0.44;87.24;94859.11;640969;221;24485;-70
2021/01/04 09:29:41;;;;;;;28.13;17.67;;;-0.20;1.40;;;0.88;87.59;94851.97;637476;221;24500;-70
2021/01/04 09:32:12;;;;;;;25.30;17.97;;;-0.10;1.40;;;1.01;86.54;94856.60;653227;215;24479;-70
2021/01/04 09:34:41;;;;;;;26.20;18.23;;;-0.10;1.40;;;0.49;88.75;94853.17;671499;211;24461;-70
2021/01/04 09:37:10;;;;;;;30.10;19.10;;;-0.20;1.40;;;0.10;90.35;94855.48;666009;211;29760;-70
2021/01/04 09:39:39;;;;;;;27.10;18.40;;;-0.30;1.40;;;0.11;91.05;94856.77;669212;211;24517;-70
2021/01/04 09:42:07;;;;;;;23.73;16.53;;;-0.30;1.40;;;0.14;90.66;94853.22;672147;211;24436;-70
2021/01/04 09:44:36;;;;;;;26.47;16.80;;;-0.30;1.40;;;0.25;90.29;94851.69;671415;211;24469;-71
2021/01/04 09:47:05;;;;;;;27.10;17.73;;;-0.30;1.40;;;0.57;89.37;94849.20;653846;216;24600;-70
2021/01/04 09:49:37;;;;;;;26.50;16.70;;;-0.20;1.40;;;0.40;89.36;94851.19;656490;215;24467;-70
2021/01/04 09:52:21;;;;;;;28.97;18.00;;;-0.20;1.40;;;0.65;89.18;94843.81;649688;219;24471;-70
2021/01/04 09:55:03;;;;;;;28.65;22.25;;;-0.10;1.40;;;1.08;87.97;94839.93;643377;212;31608;-70
2021/01/04 09:57:32;;;;;;;24.30;17.47;;;0.10;1.40;;;0.62;87.97;94837.23;641917;221;23457;-70
2021/01/04 10:00:00;;;;;;;27.83;20.77;;;-0.10;1.40;;;0.52;89.50;94837.94;635975;221;32336;-70
2021/01/04 10:02:29;;;;;;;27.97;20.00;;;-0.10;1.40;;;0.93;88.22;94844.30;640582;220;26126;-70
2021/01/04 10:05:07;;;;;;;24.30;17.77;;;0.00;1.40;;;0.91;87.75;94843.56;638866;221;25046;-70
2021/01/04 10:07:35;;;;;;;24.40;17.17;;;0.00;1.40;;;0.84;87.59;94842.19;644134;219;24546;-70
2021/01/04 10:10:08;;;;;;;29.37;21.90;;;0.00;1.40;;;0.59;88.93;94840.52;663504;211;31903;-71
2021/01/04 10:12:36;;;;;;;28.30;21.95;;;-0.10;1.40;;;1.06;88.71;94837.25;665466;211;31454;-71
2021/01/04 10:15:06;;;;;;;29.70;19.23;;;0.00;1.40;;;1.17;87.14;94840.10;669028;211;23402;-71
2021/01/04 10:17:40;;;;;;;28.10;21.33;;;0.10;1.40;;;0.68;88.40;94833.64;662526;211;31661;-70
2021/01/04 10:20:24;;;;;;;24.43;17.73;;;-0.10;1.40;;;0.82;88.82;94832.52;641261;221;23981;-70
2021/01/04 10:22:52;;;;;;;28.58;21.08;;;-0.10;1.40;;;0.94;88.45;94832.71;665595;211;31417;-71
2021/01/04 10:25:23;;;;;;;29.07;19.30;;;0.00;1.40;;;0.99;88.04;94831.03;668181;211;23759;-70
2021/01/04 10:27:52;;;;;;;26.07;19.53;;;0.00;1.40;;;0.26;88.91;94828.72;667657;211;24429;-70
2021/01/04 10:30:21;;;;;;;30.23;22.37;;;-0.30;1.40;;;0.34;91.06;94831.55;659770;211;31478;-70
2021/01/04 10:32:49;;;;;;;27.00;19.60;;;-0.20;1.40;;;0.67;90.06;94825.26;669671;211;23414;-70
2021/01/04 10:35:22;;;;;;;26.70;19.50;;;-0.20;1.40;;;1.00;88.77;94823.94;648534;220;31333;-71
2021/01/04 10:37:53;;;;;;;24.00;17.20;;;0.00;1.40;;;1.06;87.62;94820.39;652374;216;24453;-70
2021/01/04 10:40:23;;;;;;;26.73;16.53;;;0.00;1.40;;;1.09;86.97;94820.45;667413;211;24462;-70
2021/01/04 10:43:00;;;;;;;32.00;21.37;;;0.00;1.40;;;1.25;86.22;94815.42;663742;211;31603;-72
2021/01/04 10:45:34;;;;;;;29.10;19.60;;;0.00;1.40;;;1.09;87.05;94810.05;659771;215;23416;-70
2021/01/04 10:48:13;;;;;;;27.17;17.90;;;0.00;1.40;;;0.65;87.30;94806.69;641195;220;24526;-70
2021/01/04 10:50:46;;;;;;;25.80;17.07;;;-0.20;1.40;;;0.92;88.08;94805.14;642647;221;24547;-70
2021/01/04 10:53:14;;;;;;;25.87;17.37;;;-0.10;1.40;;;1.12;87.49;94792.69;655729;215;24484;-70
2021/01/04 10:55:50;;;;;;;30.25;22.02;;;0.00;1.40;;;1.13;86.79;94791.45;647866;216;31649;-71
2021/01/04 10:58:28;;;;;;;25.20;18.33;;;0.10;1.40;;;1.20;86.55;94781.77;629543;225;25930;-70
2021/01/04 11:03:31;;;;;;;30.80;21.25;;;-0.10;1.40;;;0.44;88.35;94776.67;645925;212;32118;-69
2021/01/04 11:06:00;;;;;;;25.03;17.47;;;-0.30;1.40;;;0.64;90.02;94775.59;641183;220;23455;-70
2021/01/04 11:08:28;;;;;;;26.80;18.20;;;-0.20;1.40;;;0.98;88.14;94766.56;640037;221;24605;-71
2021/01/04 11:11:00;;;;;;;27.77;17.70;;;0.00;1.40;;;1.28;86.91;94770.63;649017;220;24517;-71
2021/01/04 11:13:31;;;;;;;29.25;22.17;;;0.00;1.40;;;1.00;87.23;94767.37;664074;211;31946;-71
2021/01/04 11:16:18;;;;;;;30.80;19.73;;;0.00;1.40;;;1.33;86.43;94771.73;656513;216;23520;-71
2021/01/04 11:18:49;;;;;;;27.53;18.27;;;0.00;1.40;;;0.96;86.22;94768.58;655114;215;24557;-71
2021/01/04 11:21:17;;;;;;;27.33;16.87;;;-0.10;1.40;;;1.00;86.95;94768.48;667321;211;25493;-70
2021/01/04 11:26:26;;;;;;;32.70;23.08;;;-0.20;1.40;;;1.12;87.93;94762.58;646720;216;32056;-72
2021/01/04 11:28:55;;;;;;;32.17;21.20;;;0.00;1.40;;;1.24;86.68;94761.91;639919;220;23475;-72
2021/01/04 11:31:23;;;;;;;28.60;19.37;;;-0.10;1.40;;;1.18;86.36;94761.95;651180;218;25065;-73
2021/01/04 11:33:51;;;;;;;30.60;20.67;;;-0.10;1.40;;;0.74;87.04;94762.24;653477;217;24474;-72
2021/01/04 11:36:20;;;;;;;27.37;18.97;;;-0.20;1.40;;;0.82;88.36;94766.89;653224;217;24517;-73
2021/01/04 11:38:49;;;;;;;26.27;18.50;;;-0.20;1.40;;;0.63;87.57;94771.37;652004;217;24563;-73
2021/01/04 11:41:17;;;;;;;29.95;22.33;;;-0.30;1.40;;;0.15;89.92;94770.78;627179;225;31874;-73